Time;durP1;ratioP1;P1;durP2;ratioP2;P2;SDS_P1;SDS_P2;PMS_P1;PMS_P2;Temp;Humidity;BMP_temperature;BMP_pressure;BME280_temperature;BME280_humidity;BME280_pressure;Samples;Min_cycle;Max_cycle;Signal;HPM_P1;HPM_P2
2023/04/25 00:00:09;;;;;;;;;;;10.40;86.50;;;;;;5091806;28;19978;-72
2023/04/25 00:02:41;;;;;;;;;;;10.30;86.40;;;;;;5091360;28;19935;-72
2023/04/25 00:05:11;;;;;;;;;;;10.30;86.30;;;;;;5090163;28;20406;-71
2023/04/25 00:07:38;;;;;;;;;;;10.30;86.40;;;;;;5090172;28;19923;-72
2023/04/25 00:10:06;;;;;;;;;;;10.30;86.30;;;;;;5093392;28;20294;-71
2023/04/25 00:12:33;;;;;;;;;;;10.30;86.50;;;;;;5087652;28;20375;-72
2023/04/25 00:15:00;;;;;;;;;;;10.30;86.40;;;;;;5089718;28;19934;-70
2023/04/25 00:17:28;;;;;;;;;;;10.30;86.20;;;;;;5092313;28;20382;-71
2023/04/25 00:19:57;;;;;;;;;;;10.30;86.20;;;;;;5092128;28;20032;-71
2023/04/25 00:22:24;;;;;;;;;;;10.30;86.40;;;;;;5093446;28;20373;-72
2023/04/25 00:24:53;;;;;;;;;;;10.30;86.50;;;;;;5091093;28;19935;-71
2023/04/25 00:27:19;;;;;;;;;;;10.30;86.40;;;;;;5093474;28;19932;-72
2023/04/25 00:29:46;;;;;;;;;;;10.30;86.70;;;;;;5092395;28;19923;-72
2023/04/25 00:32:13;;;;;;;;;;;10.20;86.70;;;;;;5090243;28;19924;-71
2023/04/25 00:34:41;;;;;;;;;;;10.20;86.90;;;;;;5074577;28;19928;-71
2023/04/25 00:37:10;;;;;;;;;;;10.20;86.80;;;;;;5093001;28;20297;-71
2023/04/25 00:39:39;;;;;;;;;;;10.20;86.90;;;;;;5088496;28;20022;-72
2023/04/25 00:42:06;;;;;;;;;;;10.20;86.80;;;;;;5082950;28;20374;-71
2023/04/25 00:44:33;;;;;;;;;;;10.10;86.90;;;;;;5090063;28;19932;-71
2023/04/25 00:47:01;;;;;;;;;;;10.20;86.90;;;;;;5091871;28;19931;-71
2023/04/25 00:49:28;;;;;;;;;;;10.20;86.80;;;;;;5093263;28;19993;-71
2023/04/25 00:51:55;;;;;;;;;;;10.20;86.60;;;;;;5093336;28;19928;-71
2023/04/25 00:54:23;;;;;;;;;;;10.20;86.70;;;;;;5068167;28;19928;-71
2023/04/25 00:56:50;;;;;;;;;;;10.20;86.90;;;;;;5087073;28;19940;-72
2023/04/25 00:59:17;;;;;;;;;;;10.20;86.50;;;;;;5090168;28;19924;-72
2023/04/25 01:01:45;;;;;;;;;;;10.10;86.70;;;;;;5091109;28;20018;-72
2023/04/25 01:04:11;;;;;;;;;;;10.10;86.70;;;;;;5092264;28;19936;-70
2023/04/25 01:06:38;;;;;;;;;;;10.10;86.90;;;;;;5072510;28;20009;-71
2023/04/25 01:09:05;;;;;;;;;;;10.10;86.70;;;;;;5090869;28;20381;-72
2023/04/25 01:11:34;;;;;;;;;;;10.20;86.50;;;;;;5091622;28;19939;-71
2023/04/25 01:14:01;;;;;;;;;;;10.20;86.30;;;;;;5091568;28;19927;-72
2023/04/25 01:16:28;;;;;;;;;;;10.20;86.20;;;;;;5072712;28;19932;-73
2023/04/25 01:18:55;;;;;;;;;;;10.20;86.20;;;;;;5091263;28;19928;-72
2023/04/25 01:21:27;;;;;;;;;;;10.20;86.10;;;;;;5090478;28;19957;-72
2023/04/25 01:23:55;;;;;;;;;;;10.10;86.00;;;;;;5069841;28;19931;-73
2023/04/25 01:26:22;;;;;;;;;;;10.10;85.90;;;;;;5087934;28;19964;-73
2023/04/25 01:28:49;;;;;;;;;;;10.10;86.00;;;;;;5073588;28;19928;-72
2023/04/25 01:31:16;;;;;;;;;;;10.00;86.20;;;;;;5090252;28;20519;-72
2023/04/25 01:33:44;;;;;;;;;;;10.10;86.00;;;;;;5072689;28;19985;-72
2023/04/25 01:36:11;;;;;;;;;;;10.00;86.10;;;;;;5073959;28;20379;-73
2023/04/25 01:38:40;;;;;;;;;;;10.00;86.10;;;;;;5089989;28;19932;-71
2023/04/25 01:41:07;;;;;;;;;;;10.10;86.00;;;;;;5069284;28;19928;-71
2023/04/25 01:43:34;;;;;;;;;;;10.10;85.90;;;;;;5089011;28;19973;-72
2023/04/25 01:46:01;;;;;;;;;;;10.00;86.10;;;;;;5090249;28;20355;-72
2023/04/25 01:48:27;;;;;;;;;;;10.00;86.40;;;;;;5089806;28;19935;-72
2023/04/25 01:50:54;;;;;;;;;;;10.00;86.20;;;;;;5071464;28;19952;-72
2023/04/25 01:53:21;;;;;;;;;;;10.00;86.10;;;;;;5073985;28;19935;-72
2023/04/25 01:55:50;;;;;;;;;;;10.00;86.20;;;;;;5073152;28;20871;-73
2023/04/25 01:58:19;;;;;;;;;;;9.90;86.30;;;;;;5072923;28;20272;-72
2023/04/25 02:00:58;;;;;;;;;;;9.90;86.30;;;;;;5087325;28;19931;-71
2023/04/25 02:03:29;;;;;;;;;;;9.90;86.30;;;;;;5072167;28;20291;-71
2023/04/25 02:05:57;;;;;;;;;;;9.90;86.30;;;;;;5071401;28;20011;-73
2023/04/25 02:08:25;;;;;;;;;;;9.90;86.10;;;;;;5071437;28;20378;-72
2023/04/25 02:10:56;;;;;;;;;;;9.90;86.20;;;;;;5070753;28;19963;-72
2023/04/25 02:13:24;;;;;;;;;;;9.90;86.30;;;;;;5087344;28;19930;-72
2023/04/25 02:15:51;;;;;;;;;;;9.90;86.30;;;;;;5090754;28;19928;-71
2023/04/25 02:18:20;;;;;;;;;;;9.90;86.40;;;;;;5073993;28;19977;-72
2023/04/25 02:20:47;;;;;;;;;;;9.80;86.50;;;;;;5073977;28;19932;-73
2023/04/25 02:23:15;;;;;;;;;;;9.90;86.10;;;;;;5090367;28;19931;-73
2023/04/25 02:25:41;;;;;;;;;;;9.90;85.70;;;;;;5071109;28;20351;-73
2023/04/25 02:28:10;;;;;;;;;;;9.80;85.80;;;;;;5071963;28;19935;-73
2023/04/25 02:30:37;;;;;;;;;;;9.80;85.70;;;;;;5072014;28;19932;-73
2023/04/25 02:33:05;;;;;;;;;;;9.80;85.50;;;;;;5088236;28;20406;-73
2023/04/25 02:35:32;;;;;;;;;;;9.70;85.50;;;;;;5091734;28;19924;-74
2023/04/25 02:37:59;;;;;;;;;;;9.70;85.70;;;;;;5072290;28;19951;-72
2023/04/25 02:40:25;;;;;;;;;;;9.70;85.80;;;;;;5072753;28;19924;-72
2023/04/25 02:42:54;;;;;;;;;;;9.70;85.90;;;;;;5086757;28;19935;-72
2023/04/25 02:45:22;;;;;;;;;;;9.70;86.10;;;;;;5091115;28;19951;-73
2023/04/25 02:47:50;;;;;;;;;;;9.70;86.10;;;;;;5090042;28;20424;-72
2023/04/25 02:50:19;;;;;;;;;;;9.70;86.00;;;;;;5089825;28;19928;-73
2023/04/25 02:52:46;;;;;;;;;;;9.70;86.10;;;;;;5091052;28;19969;-73
2023/04/25 02:55:16;;;;;;;;;;;9.70;86.20;;;;;;5069599;28;19932;-73
2023/04/25 02:57:44;;;;;;;;;;;9.70;86.20;;;;;;5072665;28;19989;-72
2023/04/25 03:00:15;;;;;;;;;;;9.70;86.00;;;;;;5073077;28;19924;-74
2023/04/25 03:02:43;;;;;;;;;;;9.70;85.90;;;;;;5072204;28;20313;-73
2023/04/25 03:05:10;;;;;;;;;;;9.60;86.10;;;;;;5087987;28;20015;-73
2023/04/25 03:07:39;;;;;;;;;;;9.70;85.90;;;;;;5072982;28;20704;-71
2023/04/25 03:10:06;;;;;;;;;;;9.70;86.00;;;;;;5090704;28;19935;-72
2023/04/25 03:12:34;;;;;;;;;;;9.60;86.00;;;;;;5073095;28;20014;-73
2023/04/25 03:15:00;;;;;;;;;;;9.60;86.10;;;;;;5071061;28;19928;-73
2023/04/25 03:17:27;;;;;;;;;;;9.60;86.10;;;;;;5073419;28;19998;-73
2023/04/25 03:19:55;;;;;;;;;;;9.60;86.20;;;;;;5089480;28;19938;-72
2023/04/25 03:22:23;;;;;;;;;;;9.60;86.30;;;;;;5071618;28;20229;-73
2023/04/25 03:24:50;;;;;;;;;;;9.50;86.30;;;;;;5073450;28;19931;-72
2023/04/25 03:27:16;;;;;;;;;;;9.50;86.30;;;;;;5067501;28;19931;-73
2023/04/25 03:29:43;;;;;;;;;;;9.60;86.10;;;;;;5072769;28;20451;-73
2023/04/25 03:32:10;;;;;;;;;;;9.50;86.40;;;;;;5071345;28;19971;-73
2023/04/25 03:34:37;;;;;;;;;;;9.40;86.40;;;;;;5091721;28;19935;-73
2023/04/25 03:37:05;;;;;;;;;;;9.40;86.40;;;;;;5074768;28;20010;-73
2023/04/25 03:39:37;;;;;;;;;;;9.40;86.50;;;;;;5093119;28;19973;-73
2023/04/25 03:42:04;;;;;;;;;;;9.40;86.50;;;;;;5071540;28;19935;-72
2023/04/25 03:44:31;;;;;;;;;;;9.40;86.70;;;;;;5075829;28;19996;-73
2023/04/25 03:46:58;;;;;;;;;;;9.40;86.50;;;;;;5095150;28;19934;-73
2023/04/25 03:49:26;;;;;;;;;;;9.40;86.30;;;;;;5076905;28;20040;-72
2023/04/25 03:52:01;;;;;;;;;;;9.40;86.50;;;;;;5077123;28;20378;-72
2023/04/25 03:54:34;;;;;;;;;;;9.40;86.50;;;;;;5076616;28;20424;-73
2023/04/25 03:57:27;;;;;;;;;;;9.40;86.50;;;;;;5089720;28;19928;-73
2023/04/25 03:59:54;;;;;;;;;;;9.40;86.60;;;;;;5071353;28;19928;-72
2023/04/25 04:02:21;;;;;;;;;;;9.50;86.40;;;;;;5071365;28;20018;-73
2023/04/25 04:04:48;;;;;;;;;;;9.40;86.10;;;;;;5074233;28;20301;-72
2023/04/25 04:07:16;;;;;;;;;;;9.40;85.70;;;;;;5094324;28;19930;-73
2023/04/25 04:09:47;;;;;;;;;;;9.30;84.70;;;;;;5074659;28;20378;-72
2023/04/25 04:12:20;;;;;;;;;;;9.30;84.00;;;;;;5091152;28;19935;-72
2023/04/25 04:14:47;;;;;;;;;;;9.30;83.20;;;;;;5073690;28;19928;-73
2023/04/25 04:17:14;;;;;;;;;;;9.20;83.20;;;;;;5095031;28;20020;-73
2023/04/25 04:19:41;;;;;;;;;;;9.20;82.40;;;;;;5091203;28;20397;-73
2023/04/25 04:22:19;;;;;;;;;;;9.10;82.10;;;;;;5076905;28;19972;-73
2023/04/25 04:24:49;;;;;;;;;;;9.00;82.10;;;;;;5074673;28;19974;-74
2023/04/25 04:27:22;;;;;;;;;;;9.00;81.50;;;;;;5073610;28;19924;-74
2023/04/25 04:29:54;;;;;;;;;;;9.00;81.30;;;;;;5092495;28;19930;-74
2023/04/25 04:32:27;;;;;;;;;;;9.00;80.60;;;;;;5074230;28;20398;-73
2023/04/25 04:34:55;;;;;;;;;;;8.90;80.50;;;;;;5075460;28;19946;-73
2023/04/25 04:37:23;;;;;;;;;;;8.90;80.60;;;;;;5076811;28;19950;-73
2023/04/25 04:39:52;;;;;;;;;;;8.90;80.40;;;;;;5076107;28;19967;-74
2023/04/25 04:42:25;;;;;;;;;;;8.90;80.20;;;;;;5091343;28;19924;-74
2023/04/25 04:45:05;;;;;;;;;;;8.90;80.40;;;;;;5073183;28;19981;-73
2023/04/25 04:47:45;;;;;;;;;;;8.90;80.30;;;;;;5076163;28;19970;-74
2023/04/25 04:50:32;;;;;;;;;;;8.90;79.90;;;;;;5092893;28;19950;-73
2023/04/25 04:53:17;;;;;;;;;;;8.90;80.20;;;;;;5093453;28;19959;-73
2023/04/25 04:56:00;;;;;;;;;;;8.90;79.80;;;;;;5072553;28;19924;-72
2023/04/25 04:59:06;;;;;;;;;;;8.90;80.00;;;;;;4999492;28;19929;-74
2023/04/25 05:01:44;;;;;;;;;;;8.90;80.30;;;;;;4981851;28;19957;-75
2023/04/25 05:04:31;;;;;;;;;;;8.90;80.50;;;;;;5051478;28;19935;-74
2023/04/25 05:07:14;;;;;;;;;;;8.90;80.50;;;;;;5073070;28;19935;-73
2023/04/25 05:09:50;;;;;;;;;;;8.90;80.60;;;;;;5075689;28;19932;-75
2023/04/25 05:12:41;;;;;;;;;;;8.90;80.40;;;;;;5090123;28;19932;-74
2023/04/25 05:15:39;;;;;;;;;;;8.90;80.50;;;;;;5080164;28;19928;-74
2023/04/25 05:18:22;;;;;;;;;;;8.90;79.90;;;;;;5075156;28;19924;-74
2023/04/25 05:21:07;;;;;;;;;;;8.90;79.50;;;;;;5090813;28;20025;-74
2023/04/25 05:23:47;;;;;;;;;;;8.90;79.20;;;;;;5093568;28;19981;-75
2023/04/25 05:26:23;;;;;;;;;;;8.90;79.10;;;;;;5090173;28;20398;-75
2023/04/25 05:29:02;;;;;;;;;;;8.90;79.20;;;;;;5090604;28;19924;-74
2023/04/25 05:31:40;;;;;;;;;;;8.90;79.10;;;;;;5092956;28;19928;-76
2023/04/25 05:34:10;;;;;;;;;;;8.80;79.30;;;;;;5072345;28;19988;-74
2023/04/25 05:36:58;;;;;;;;;;;8.80;79.20;;;;;;5091336;28;19963;-74
2023/04/25 05:39:25;;;;;;;;;;;8.80;78.90;;;;;;5075154;28;19960;-75
2023/04/25 05:42:11;;;;;;;;;;;8.80;79.10;;;;;;5091757;28;19935;-74
2023/04/25 05:44:54;;;;;;;;;;;8.90;78.60;;;;;;5089604;28;19935;-75
2023/04/25 05:47:46;;;;;;;;;;;8.90;78.50;;;;;;5092303;28;19961;-74
2023/04/25 05:50:23;;;;;;;;;;;8.90;77.60;;;;;;5072495;28;19933;-75
2023/04/25 05:53:01;;;;;;;;;;;8.90;77.60;;;;;;5073449;28;19959;-73
2023/04/25 05:55:30;;;;;;;;;;;9.00;78.20;;;;;;5074090;28;19924;-74
2023/04/25 05:57:59;;;;;;;;;;;9.10;77.50;;;;;;5091702;28;19978;-75
2023/04/25 06:00:28;;;;;;;;;;;9.10;77.00;;;;;;5091995;28;19924;-75
2023/04/25 06:02:55;;;;;;;;;;;9.20;76.90;;;;;;5092545;28;19939;-75
2023/04/25 06:05:22;;;;;;;;;;;9.20;76.90;;;;;;5091559;28;20019;-75
2023/04/25 06:07:49;;;;;;;;;;;9.20;77.00;;;;;;5072710;28;19924;-74
2023/04/25 06:10:16;;;;;;;;;;;9.10;76.90;;;;;;5088838;28;20436;-77
2023/04/25 06:12:43;;;;;;;;;;;9.20;77.00;;;;;;5073827;28;19924;-74
2023/04/25 06:15:11;;;;;;;;;;;9.20;77.50;;;;;;5073876;28;19928;-75
2023/04/25 06:17:39;;;;;;;;;;;9.20;77.50;;;;;;5073977;28;19935;-75
2023/04/25 06:20:08;;;;;;;;;;;9.20;77.30;;;;;;5073795;28;19928;-75
2023/04/25 06:22:34;;;;;;;;;;;9.30;77.30;;;;;;5074022;28;19928;-75
2023/04/25 06:25:03;;;;;;;;;;;9.30;76.60;;;;;;5071613;28;19931;-74
2023/04/25 06:27:30;;;;;;;;;;;9.30;76.40;;;;;;5089493;28;20045;-75
2023/04/25 06:29:57;;;;;;;;;;;9.40;76.20;;;;;;5070175;28;19928;-75
2023/04/25 06:32:27;;;;;;;;;;;9.40;75.90;;;;;;5089319;28;19928;-74
2023/04/25 06:34:56;;;;;;;;;;;9.40;75.30;;;;;;5070599;28;19932;-74
2023/04/25 06:37:23;;;;;;;;;;;9.50;75.40;;;;;;5092106;28;20603;-74
2023/04/25 06:39:51;;;;;;;;;;;9.60;75.10;;;;;;5071737;28;19932;-75
2023/04/25 06:42:18;;;;;;;;;;;9.60;74.60;;;;;;5070182;28;20463;-75
2023/04/25 06:44:58;;;;;;;;;;;9.70;74.20;;;;;;5090141;28;19924;-74
2023/04/25 06:47:25;;;;;;;;;;;9.80;73.90;;;;;;5073820;28;19931;-75
2023/04/25 06:49:52;;;;;;;;;;;9.90;73.50;;;;;;5073054;28;19932;-75
2023/04/25 06:52:21;;;;;;;;;;;9.90;73.40;;;;;;5074025;28;19924;-76
2023/04/25 06:54:49;;;;;;;;;;;10.00;73.70;;;;;;5073277;28;20395;-75
2023/04/25 06:57:28;;;;;;;;;;;10.20;73.60;;;;;;5091213;28;19954;-74
2023/04/25 06:59:59;;;;;;;;;;;10.20;72.40;;;;;;5090237;28;20020;-74
2023/04/25 07:02:26;;;;;;;;;;;10.30;72.60;;;;;;5092096;28;19924;-75
2023/04/25 07:04:56;;;;;;;;;;;10.30;72.40;;;;;;5074339;28;19932;-72
2023/04/25 07:07:24;;;;;;;;;;;10.30;72.40;;;;;;5073350;28;20373;-74
2023/04/25 07:09:55;;;;;;;;;;;10.20;72.10;;;;;;5070858;28;20099;-74
2023/04/25 07:12:22;;;;;;;;;;;10.40;71.90;;;;;;5073197;28;19950;-75
2023/04/25 07:14:49;;;;;;;;;;;10.60;71.80;;;;;;5072531;28;20027;-74
2023/04/25 07:17:16;;;;;;;;;;;10.70;71.40;;;;;;5072704;28;19938;-73
2023/04/25 07:19:43;;;;;;;;;;;10.80;71.00;;;;;;5073180;28;20409;-73
2023/04/25 07:22:10;;;;;;;;;;;10.80;70.30;;;;;;5090440;28;19928;-75
2023/04/25 07:24:41;;;;;;;;;;;10.80;70.30;;;;;;5073463;28;19928;-74
2023/04/25 07:27:10;;;;;;;;;;;10.90;70.10;;;;;;5072985;28;19938;-74
2023/04/25 07:30:01;;;;;;;;;;;10.90;70.20;;;;;;5072288;28;20397;-73
2023/04/25 07:32:27;;;;;;;;;;;11.00;70.50;;;;;;5071280;28;19956;-73
2023/04/25 07:34:54;;;;;;;;;;;11.10;69.80;;;;;;5090079;28;19931;-74
2023/04/25 07:37:21;;;;;;;;;;;11.20;69.60;;;;;;5070795;28;19938;-74
2023/04/25 07:40:11;;;;;;;;;;;11.10;69.10;;;;;;5071101;28;19931;-74
2023/04/25 07:42:44;;;;;;;;;;;11.30;68.80;;;;;;5088826;28;20286;-74
2023/04/25 07:45:12;;;;;;;;;;;11.50;69.10;;;;;;5071380;28;20014;-74
2023/04/25 07:47:40;;;;;;;;;;;11.70;68.30;;;;;;5091106;28;20061;-73
2023/04/25 07:50:08;;;;;;;;;;;11.70;67.60;;;;;;5089461;28;19967;-73
2023/04/25 07:52:35;;;;;;;;;;;11.60;67.30;;;;;;5068477;28;19954;-75
2023/04/25 07:55:16;;;;;;;;;;;11.60;67.90;;;;;;5069162;28;19968;-73
2023/04/25 07:57:54;;;;;;;;;;;11.80;67.60;;;;;;5072285;28;19932;-74
2023/04/25 08:00:21;;;;;;;;;;;11.90;66.70;;;;;;5091466;28;19976;-67
2023/04/25 08:02:55;;;;;;;;;;;12.10;66.80;;;;;;5072250;28;19924;-67
2023/04/25 08:05:22;;;;;;;;;;;12.40;65.60;;;;;;5091156;28;20409;-67
2023/04/25 08:07:56;;;;;;;;;;;12.60;65.20;;;;;;5071643;28;19967;-66
2023/04/25 08:10:24;;;;;;;;;;;12.40;65.90;;;;;;5081554;28;20214;-67
2023/04/25 08:12:51;;;;;;;;;;;12.10;66.50;;;;;;5071507;28;19932;-67
2023/04/25 08:15:18;;;;;;;;;;;12.00;65.40;;;;;;5071912;28;19956;-68
2023/04/25 08:17:45;;;;;;;;;;;12.20;64.90;;;;;;5088525;28;19928;-68
2023/04/25 08:20:13;;;;;;;;;;;12.40;64.10;;;;;;5073549;28;19927;-67
2023/04/25 08:22:40;;;;;;;;;;;12.60;63.90;;;;;;5074843;28;19930;-67
2023/04/25 08:25:27;;;;;;;;;;;12.60;63.20;;;;;;5094177;28;20409;-67
2023/04/25 08:27:54;;;;;;;;;;;12.80;62.50;;;;;;5074079;28;19936;-67
2023/04/25 08:30:23;;;;;;;;;;;13.20;62.50;;;;;;5094462;28;19924;-68
2023/04/25 08:32:51;;;;;;;;;;;13.10;62.10;;;;;;5071440;28;19932;-67
2023/04/25 08:35:35;;;;;;;;;;;13.00;61.60;;;;;;5075472;28;20423;-69
2023/04/25 08:38:02;;;;;;;;;;;12.90;62.10;;;;;;5075821;28;20019;-69
2023/04/25 08:40:33;;;;;;;;;;;12.80;62.50;;;;;;5090806;28;19924;-65
2023/04/25 08:43:11;;;;;;;;;;;12.60;62.30;;;;;;5092393;28;20468;-67
2023/04/25 08:45:40;;;;;;;;;;;12.40;62.80;;;;;;5091354;28;19928;-68
2023/04/25 08:48:08;;;;;;;;;;;12.30;63.90;;;;;;5094565;28;19924;-68
2023/04/25 08:50:37;;;;;;;;;;;12.30;63.70;;;;;;5091425;28;19996;-68
2023/04/25 08:53:05;;;;;;;;;;;12.30;63.00;;;;;;5091878;28;19932;-67
2023/04/25 08:55:37;;;;;;;;;;;12.30;63.40;;;;;;5075397;28;19970;-67
2023/04/25 08:58:05;;;;;;;;;;;12.50;62.40;;;;;;5075306;28;20406;-68
2023/04/25 09:00:32;;;;;;;;;;;12.60;62.30;;;;;;5093187;28;19928;-67
2023/04/25 09:03:00;;;;;;;;;;;12.70;62.60;;;;;;5072306;28;19964;-67
2023/04/25 09:05:31;;;;;;;;;;;12.70;61.90;;;;;;5073988;28;19928;-66
2023/04/25 09:07:58;;;;;;;;;;;12.60;62.40;;;;;;5093501;28;19932;-68
2023/04/25 09:10:26;;;;;;;;;;;12.60;61.60;;;;;;5073447;28;19931;-68
2023/04/25 09:13:06;;;;;;;;;;;12.50;62.20;;;;;;5074188;28;19924;-68
2023/04/25 09:15:47;;;;;;;;;;;12.40;60.60;;;;;;5075050;28;20299;-66
2023/04/25 09:18:41;;;;;;;;;;;12.40;61.70;;;;;;5090206;28;19924;-68
2023/04/25 09:21:09;;;;;;;;;;;12.50;61.20;;;;;;5088336;28;19931;-67
2023/04/25 09:23:40;;;;;;;;;;;12.60;60.70;;;;;;5091661;28;19977;-68
2023/04/25 09:26:08;;;;;;;;;;;12.60;61.00;;;;;;5075179;28;20051;-68
2023/04/25 09:28:37;;;;;;;;;;;12.60;61.00;;;;;;5090544;28;19932;-68
2023/04/25 09:31:04;;;;;;;;;;;12.70;60.90;;;;;;5090439;28;20288;-68
2023/04/25 09:33:42;;;;;;;;;;;12.70;60.60;;;;;;5085946;28;20587;-67
2023/04/25 09:36:10;;;;;;;;;;;12.70;60.70;;;;;;5074525;28;20026;-67
2023/04/25 09:39:00;;;;;;;;;;;12.70;60.30;;;;;;5073837;28;19931;-68
2023/04/25 09:41:33;;;;;;;;;;;12.70;60.50;;;;;;5074889;28;19924;-68
2023/04/25 09:44:03;;;;;;;;;;;12.70;60.60;;;;;;5073932;28;19928;-67
2023/04/25 09:46:37;;;;;;;;;;;12.70;60.40;;;;;;5073634;28;19932;-67
2023/04/25 09:49:09;;;;;;;;;;;12.60;60.10;;;;;;5090737;28;19991;-68
2023/04/25 09:51:54;;;;;;;;;;;12.60;59.90;;;;;;5075106;28;19978;-68
2023/04/25 09:54:22;;;;;;;;;;;12.60;59.70;;;;;;5074815;28;19969;-68
2023/04/25 09:56:52;;;;;;;;;;;12.60;61.60;;;;;;5091137;28;19924;-68
2023/04/25 09:59:23;;;;;;;;;;;12.60;61.70;;;;;;5092579;28;20009;-67
2023/04/25 10:01:52;;;;;;;;;;;12.60;62.00;;;;;;5092010;28;20149;-68
2023/04/25 10:04:29;;;;;;;;;;;12.60;62.10;;;;;;5069046;28;20449;-68
2023/04/25 10:07:02;;;;;;;;;;;12.60;61.00;;;;;;5073205;28;19932;-68
2023/04/25 10:09:31;;;;;;;;;;;12.60;61.30;;;;;;5074068;28;19935;-67
2023/04/25 10:11:59;;;;;;;;;;;12.60;61.30;;;;;;5090235;28;20683;-67
2023/04/25 10:14:28;;;;;;;;;;;12.60;61.80;;;;;;5090786;28;20402;-68
2023/04/25 10:16:55;;;;;;;;;;;12.50;61.90;;;;;;5091970;28;19939;-67
2023/04/25 10:19:22;;;;;;;;;;;12.40;61.30;;;;;;5091305;28;19964;-68
2023/04/25 10:21:51;;;;;;;;;;;12.30;61.50;;;;;;5089693;28;19930;-67
2023/04/25 10:24:18;;;;;;;;;;;12.30;62.50;;;;;;5091282;28;20027;-67
2023/04/25 10:26:45;;;;;;;;;;;12.30;62.00;;;;;;5088584;28;19967;-67
2023/04/25 10:29:12;;;;;;;;;;;12.30;62.20;;;;;;5091143;28;19928;-67
2023/04/25 10:31:47;;;;;;;;;;;12.30;62.10;;;;;;5091790;28;19932;-67
2023/04/25 10:34:13;;;;;;;;;;;12.40;61.90;;;;;;5085670;28;20009;-69
2023/04/25 10:36:40;;;;;;;;;;;12.40;62.00;;;;;;5090756;28;20323;-69
2023/04/25 10:39:09;;;;;;;;;;;12.40;61.20;;;;;;5091180;28;19924;-68
2023/04/25 10:41:46;;;;;;;;;;;12.50;61.30;;;;;;5073442;28;20362;-68
2023/04/25 10:44:14;;;;;;;;;;;12.40;60.50;;;;;;5090599;28;19928;-67
2023/04/25 10:46:41;;;;;;;;;;;12.50;61.30;;;;;;5091399;28;19927;-67
2023/04/25 10:49:09;;;;;;;;;;;12.60;60.70;;;;;;5091764;28;19932;-67
2023/04/25 10:51:37;;;;;;;;;;;12.60;60.00;;;;;;5071324;28;19928;-68
2023/04/25 10:54:04;;;;;;;;;;;12.80;59.80;;;;;;5091154;28;19924;-67
2023/04/25 10:56:32;;;;;;;;;;;12.90;60.40;;;;;;5091819;28;20310;-68
2023/04/25 10:59:06;;;;;;;;;;;12.90;59.90;;;;;;5090981;28;19928;-67
2023/04/25 11:01:37;;;;;;;;;;;12.90;60.30;;;;;;5092063;28;19932;-68
2023/04/25 11:04:04;;;;;;;;;;;12.90;60.10;;;;;;5088667;28;19924;-68
2023/04/25 11:06:37;;;;;;;;;;;12.90;60.60;;;;;;5089277;28;20276;-67
2023/04/25 11:09:04;;;;;;;;;;;12.70;60.20;;;;;;5089232;28;19963;-67
2023/04/25 11:11:31;;;;;;;;;;;12.60;61.20;;;;;;5089831;28;19971;-68
2023/04/25 11:13:57;;;;;;;;;;;12.50;61.10;;;;;;5090143;28;19928;-67
2023/04/25 11:16:24;;;;;;;;;;;12.40;60.90;;;;;;5089786;28;19924;-68
2023/04/25 11:18:51;;;;;;;;;;;12.40;61.20;;;;;;5089341;28;20413;-67
2023/04/25 11:21:18;;;;;;;;;;;12.40;60.80;;;;;;5090016;28;19928;-68
2023/04/25 11:23:46;;;;;;;;;;;12.40;61.20;;;;;;5088855;28;19928;-67
2023/04/25 11:26:13;;;;;;;;;;;12.40;60.50;;;;;;5089470;28;20390;-68
2023/04/25 11:28:40;;;;;;;;;;;12.20;60.40;;;;;;5090651;28;19934;-68
2023/04/25 11:31:09;;;;;;;;;;;12.20;60.80;;;;;;5090275;28;20417;-68
2023/04/25 11:33:36;;;;;;;;;;;12.20;60.30;;;;;;5087850;28;19932;-68
2023/04/25 11:36:03;;;;;;;;;;;12.20;60.80;;;;;;5091113;28;19935;-67
2023/04/25 11:38:30;;;;;;;;;;;12.20;60.50;;;;;;5090505;28;19928;-67
2023/04/25 11:40:58;;;;;;;;;;;12.20;60.20;;;;;;5088673;28;19955;-66
2023/04/25 11:43:33;;;;;;;;;;;12.20;59.70;;;;;;5087688;28;19928;-67
2023/04/25 11:46:07;;;;;;;;;;;12.30;59.20;;;;;;5088503;28;19924;-67
2023/04/25 11:48:37;;;;;;;;;;;12.40;59.40;;;;;;5091469;28;19928;-67
2023/04/25 11:51:05;;;;;;;;;;;12.60;58.30;;;;;;5088552;28;19970;-67
2023/04/25 11:53:31;;;;;;;;;;;12.70;57.50;;;;;;5087547;28;20054;-67
2023/04/25 11:56:00;;;;;;;;;;;12.60;58.10;;;;;;5091908;28;20405;-67
2023/04/25 11:58:27;;;;;;;;;;;12.70;58.30;;;;;;5089418;28;19931;-67
2023/04/25 12:00:58;;;;;;;;;;;12.80;57.90;;;;;;5092483;28;20424;-67
2023/04/25 12:03:27;;;;;;;;;;;12.70;56.80;;;;;;5091694;28;19971;-67
2023/04/25 12:05:54;;;;;;;;;;;12.70;57.70;;;;;;5092716;28;19952;-67
2023/04/25 12:08:23;;;;;;;;;;;12.70;57.20;;;;;;5094433;28;20272;-67
2023/04/25 12:10:50;;;;;;;;;;;12.70;56.10;;;;;;5092631;28;19928;-68
2023/04/25 12:13:24;;;;;;;;;;;12.70;57.00;;;;;;5094280;28;20393;-67
2023/04/25 12:15:51;;;;;;;;;;;12.80;55.90;;;;;;5095080;28;19931;-68
2023/04/25 12:18:20;;;;;;;;;;;12.90;55.90;;;;;;5093325;28;19967;-67
2023/04/25 12:20:50;;;;;;;;;;;13.00;55.80;;;;;;5084974;28;20037;-67
2023/04/25 12:23:17;;;;;;;;;;;13.00;56.40;;;;;;5088472;28;19971;-67
2023/04/25 12:25:50;;;;;;;;;;;13.00;55.80;;;;;;5090997;28;19928;-68
2023/04/25 12:28:19;;;;;;;;;;;12.90;56.50;;;;;;5088517;28;19939;-67
2023/04/25 12:30:55;;;;;;;;;;;12.90;56.40;;;;;;5090582;28;19986;-68
2023/04/25 12:33:22;;;;;;;;;;;12.80;56.50;;;;;;5090443;28;19985;-68
2023/04/25 12:35:49;;;;;;;;;;;12.80;55.20;;;;;;5083127;28;19939;-66
2023/04/25 12:38:21;;;;;;;;;;;12.80;56.30;;;;;;5082283;28;19951;-67
2023/04/25 12:40:48;;;;;;;;;;;12.80;55.20;;;;;;5073625;28;19924;-67
2023/04/25 12:43:15;;;;;;;;;;;12.80;55.80;;;;;;5075145;28;19946;-67
2023/04/25 12:45:43;;;;;;;;;;;12.80;55.70;;;;;;5092820;28;20378;-68
2023/04/25 12:48:11;;;;;;;;;;;12.90;55.30;;;;;;5094852;28;20566;-68
2023/04/25 12:50:40;;;;;;;;;;;12.90;54.30;;;;;;5094249;28;19924;-67
2023/04/25 12:53:10;;;;;;;;;;;13.10;54.60;;;;;;5097141;28;20010;-68
2023/04/25 12:55:37;;;;;;;;;;;13.10;53.70;;;;;;5093429;28;19928;-69
2023/04/25 12:58:04;;;;;;;;;;;13.10;51.80;;;;;;5095611;28;19935;-67
2023/04/25 13:00:33;;;;;;;;;;;13.10;51.60;;;;;;5095031;28;20492;-68
2023/04/25 13:03:00;;;;;;;;;;;13.10;51.80;;;;;;5095332;28;19963;-68
2023/04/25 13:05:28;;;;;;;;;;;13.10;52.40;;;;;;5094151;28;20446;-67
2023/04/25 13:07:55;;;;;;;;;;;12.90;51.00;;;;;;5094171;28;19930;-67
2023/04/25 13:10:22;;;;;;;;;;;12.90;51.20;;;;;;5094663;28;19924;-67
2023/04/25 13:12:48;;;;;;;;;;;12.90;51.60;;;;;;5075159;28;20333;-68
2023/04/25 13:15:16;;;;;;;;;;;12.80;53.80;;;;;;5094744;28;19942;-67
2023/04/25 13:17:51;;;;;;;;;;;12.80;52.30;;;;;;5094626;28;19932;-69
2023/04/25 13:20:22;;;;;;;;;;;12.80;52.80;;;;;;5095235;28;20457;-68
2023/04/25 13:22:50;;;;;;;;;;;12.90;52.50;;;;;;5094686;28;19931;-68
2023/04/25 13:25:19;;;;;;;;;;;13.00;52.50;;;;;;5093193;28;20023;-68
2023/04/25 13:27:49;;;;;;;;;;;13.10;53.10;;;;;;5095833;28;19932;-67
2023/04/25 13:30:16;;;;;;;;;;;13.20;52.40;;;;;;5094113;28;20294;-67
2023/04/25 13:32:49;;;;;;;;;;;13.40;51.80;;;;;;5093416;28;19943;-68
2023/04/25 13:35:19;;;;;;;;;;;13.50;51.70;;;;;;5095835;28;20015;-68
2023/04/25 13:37:47;;;;;;;;;;;13.60;52.30;;;;;;5092535;28;19924;-70
2023/04/25 13:40:18;;;;;;;;;;;13.60;51.60;;;;;;5093779;28;19924;-68
2023/04/25 13:42:46;;;;;;;;;;;13.60;51.50;;;;;;5095156;28;20374;-67
2023/04/25 13:45:12;;;;;;;;;;;13.60;51.70;;;;;;5093809;28;20026;-68
2023/04/25 13:47:39;;;;;;;;;;;13.60;50.70;;;;;;5094018;28;20007;-67
2023/04/25 13:50:07;;;;;;;;;;;13.60;50.60;;;;;;5093052;28;19986;-68
2023/04/25 13:52:36;;;;;;;;;;;13.40;51.80;;;;;;5094111;28;19924;-67
2023/04/25 13:55:06;;;;;;;;;;;13.50;52.70;;;;;;5083936;28;19977;-67
2023/04/25 13:57:34;;;;;;;;;;;13.40;51.20;;;;;;5093084;28;19927;-66
2023/04/25 14:00:04;;;;;;;;;;;13.30;51.60;;;;;;5092512;28;20019;-67
2023/04/25 14:02:33;;;;;;;;;;;13.20;51.40;;;;;;5093358;28;19933;-67
2023/04/25 14:05:00;;;;;;;;;;;13.10;51.10;;;;;;5088426;28;19936;-67
2023/04/25 14:07:30;;;;;;;;;;;13.10;50.90;;;;;;5091461;28;19928;-68
2023/04/25 14:09:57;;;;;;;;;;;13.20;52.50;;;;;;5089910;28;20438;-67
2023/04/25 14:12:24;;;;;;;;;;;13.20;51.50;;;;;;5091959;28;19931;-67
2023/04/25 14:14:54;;;;;;;;;;;13.10;51.70;;;;;;5091770;28;20263;-67
2023/04/25 14:17:24;;;;;;;;;;;13.20;51.00;;;;;;5091326;28;20711;-67
2023/04/25 14:19:50;;;;;;;;;;;13.20;51.50;;;;;;5089052;28;19973;-67
2023/04/25 14:22:17;;;;;;;;;;;13.20;50.70;;;;;;5072739;28;20290;-67
2023/04/25 14:24:44;;;;;;;;;;;13.20;49.00;;;;;;5091205;28;19931;-67
2023/04/25 14:27:11;;;;;;;;;;;13.40;50.00;;;;;;5089231;28;19934;-66
2023/04/25 14:29:38;;;;;;;;;;;13.40;50.80;;;;;;5090881;28;19973;-67
2023/04/25 14:32:06;;;;;;;;;;;13.60;51.90;;;;;;5091884;28;20065;-67
2023/04/25 14:34:33;;;;;;;;;;;13.50;51.60;;;;;;5090174;28;19932;-68
2023/04/25 14:37:00;;;;;;;;;;;13.30;51.30;;;;;;5091087;28;19971;-69